Time;durP1;ratioP1;P1;durP2;ratioP2;P2;SDS_P1;SDS_P2;PMS_P1;PMS_P2;Temp;Humidity;BMP_temperature;BMP_pressure;BME280_temperature;BME280_humidity;BME280_pressure;Samples;Min_cycle;Max_cycle;Signal;HPM_P1;HPM_P2
2023/02/28 00:01:42;;;;;;;;;;;;;;;;;;5076801;28;19909;-69
2023/02/28 00:04:09;;;;;;;;;;;;;;;;;;5075104;28;19915;-70
2023/02/28 00:06:35;;;;;;;;;;;;;;;;;;5075338;28;20315;-70
2023/02/28 00:09:00;;;;;;;;;;;;;;;;;;5076783;28;19999;-69
2023/02/28 00:11:26;;;;;;;;;;;;;;;;;;5076223;28;19908;-69
2023/02/28 00:13:52;;;;;;;;;;;;;;;;;;5076862;28;20373;-70
2023/02/28 00:16:18;;;;;;;;;;;;;;;;;;5075015;28;20380;-69
2023/02/28 00:18:44;;;;;;;;;;;;;;;;;;5076482;28;20300;-69
2023/02/28 00:21:10;;;;;;;;;;;;;;;;;;5076475;28;19954;-69
2023/02/28 00:23:36;;;;;;;;;;;;;;;;;;5075960;28;19912;-69
2023/02/28 00:26:02;;;;;;;;;;;;;;;;;;5074978;28;19929;-69
2023/02/28 00:28:28;;;;;;;;;;;;;;;;;;5076785;28;20399;-69
2023/02/28 00:30:54;;;;;;;;;;;;;;;;;;5076337;28;20280;-69
2023/02/28 00:33:20;;;;;;;;;;;;;;;;;;5076216;28;19978;-69
2023/02/28 00:35:46;;;;;;;;;;;;;;;;;;5074969;28;19909;-69
2023/02/28 00:38:12;;;;;;;;;;;;;;;;;;5073967;28;19912;-70
2023/02/28 00:40:38;;;;;;;;;;;;;;;;;;5076078;28;19919;-69
2023/02/28 00:43:04;;;;;;;;;;;;;;;;;;5076010;28;19915;-69
2023/02/28 00:45:30;;;;;;;;;;;;;;;;;;5075751;28;19908;-70
2023/02/28 00:47:56;;;;;;;;;;;;;;;;;;5074618;28;20280;-69
2023/02/28 00:50:22;;;;;;;;;;;;;;;;;;5075928;28;20003;-69
2023/02/28 00:52:48;;;;;;;;;;;;;;;;;;5074215;28;19912;-69
2023/02/28 00:55:14;;;;;;;;;;;;;;;;;;5076430;28;20265;-69
2023/02/28 00:57:40;;;;;;;;;;;;;;;;;;5075765;28;20288;-70
2023/02/28 01:00:06;;;;;;;;;;;;;;;;;;5075365;28;20293;-69
2023/02/28 01:02:32;;;;;;;;;;;;;;;;;;5075726;28;19908;-69
2023/02/28 01:04:58;;;;;;;;;;;;;;;;;;5075642;28;19908;-69
2023/02/28 01:07:24;;;;;;;;;;;;;;;;;;5074994;28;19921;-69
2023/02/28 01:09:49;;;;;;;;;;;;;;;;;;5075619;28;19922;-69
2023/02/28 01:12:15;;;;;;;;;;;;;;;;;;5075533;28;19952;-69
2023/02/28 01:14:41;;;;;;;;;;;;;;;;;;5075047;28;20365;-69
2023/02/28 01:17:07;;;;;;;;;;;;;;;;;;5075408;28;19908;-69
2023/02/28 01:19:33;;;;;;;;;;;;;;;;;;5074148;28;19908;-70
2023/02/28 01:21:59;;;;;;;;;;;;;;;;;;5074954;28;19959;-69
2023/02/28 01:24:25;;;;;;;;;;;;;;;;;;5074035;28;19910;-69
2023/02/28 01:26:51;;;;;;;;;;;;;;;;;;5074748;28;19923;-69
2023/02/28 01:29:17;;;;;;;;;;;;;;;;;;5075326;28;19955;-69
2023/02/28 01:31:43;;;;;;;;;;;;;;;;;;5073843;28;19999;-70
2023/02/28 01:34:09;;;;;;;;;;;;;;;;;;5075058;28;19916;-69
2023/02/28 01:36:36;;;;;;;;;;;;;;;;;;5075127;28;19912;-69
2023/02/28 01:39:02;;;;;;;;;;;;;;;;;;5075077;28;19930;-70
2023/02/28 01:41:27;;;;;;;;;;;;;;;;;;5074782;28;20444;-69
2023/02/28 01:43:53;;;;;;;;;;;;;;;;;;5075057;28;20466;-70
2023/02/28 01:46:19;;;;;;;;;;;;;;;;;;5074778;28;19934;-70
2023/02/28 01:48:46;;;;;;;;;;;;;;;;;;5074481;28;20019;-70
2023/02/28 01:51:12;;;;;;;;;;;;;;;;;;5073991;28;20326;-69
2023/02/28 01:53:38;;;;;;;;;;;;;;;;;;5074815;28;19954;-69
2023/02/28 01:56:04;;;;;;;;;;;;;;;;;;5073032;28;19909;-69
2023/02/28 01:58:29;;;;;;;;;;;;;;;;;;5073392;28;20407;-70
2023/02/28 02:00:57;;;;;;;;;;;;;;;;;;5074756;28;20352;-69
2023/02/28 02:03:23;;;;;;;;;;;;;;;;;;5072877;28;19977;-69
2023/02/28 02:05:49;;;;;;;;;;;;;;;;;;5072956;28;19912;-69
2023/02/28 02:08:15;;;;;;;;;;;;;;;;;;5073222;28;20014;-69
2023/02/28 02:10:40;;;;;;;;;;;;;;;;;;5073995;28;20502;-70
2023/02/28 02:13:06;;;;;;;;;;;;;;;;;;5074335;28;20407;-70
2023/02/28 02:15:32;;;;;;;;;;;;;;;;;;5074317;28;20368;-69
2023/02/28 02:17:58;;;;;;;;;;;;;;;;;;5072554;28;20359;-69
2023/02/28 02:20:24;;;;;;;;;;;;;;;;;;5072956;28;20451;-69
2023/02/28 02:22:50;;;;;;;;;;;;;;;;;;5074213;28;19908;-69
2023/02/28 02:25:16;;;;;;;;;;;;;;;;;;5073797;28;19909;-69
2023/02/28 02:27:42;;;;;;;;;;;;;;;;;;5074051;28;19920;-71
2023/02/28 02:30:08;;;;;;;;;;;;;;;;;;5072395;28;20339;-69
2023/02/28 02:32:34;;;;;;;;;;;;;;;;;;5074027;28;19914;-69
2023/02/28 02:35:00;;;;;;;;;;;;;;;;;;5074055;28;19931;-69
2023/02/28 02:37:28;;;;;;;;;;;;;;;;;;5073542;28;19908;-70
2023/02/28 02:39:54;;;;;;;;;;;;;;;;;;5073958;28;19912;-69
2023/02/28 02:42:21;;;;;;;;;;;;;;;;;;5072643;28;19908;-69
2023/02/28 02:44:47;;;;;;;;;;;;;;;;;;5073461;28;19963;-69
2023/02/28 02:47:13;;;;;;;;;;;;;;;;;;5073833;28;20384;-70
2023/02/28 02:49:38;;;;;;;;;;;;;;;;;;5072461;28;20376;-69
2023/02/28 02:52:04;;;;;;;;;;;;;;;;;;5073410;28;20400;-69
2023/02/28 02:54:30;;;;;;;;;;;;;;;;;;5072592;28;20462;-70
2023/02/28 02:56:56;;;;;;;;;;;;;;;;;;5073807;28;19915;-70
2023/02/28 02:59:23;;;;;;;;;;;;;;;;;;5071996;28;19913;-70
2023/02/28 03:01:49;;;;;;;;;;;;;;;;;;5073522;28;20331;-70
2023/02/28 03:04:15;;;;;;;;;;;;;;;;;;5073990;28;19970;-70
2023/02/28 03:06:41;;;;;;;;;;;;;;;;;;5071720;28;19924;-70
2023/02/28 03:09:07;;;;;;;;;;;;;;;;;;5073589;28;19999;-69
2023/02/28 03:11:33;;;;;;;;;;;;;;;;;;5073602;28;19908;-69
2023/02/28 03:13:59;;;;;;;;;;;;;;;;;;5071779;28;19909;-69
2023/02/28 03:16:25;;;;;;;;;;;;;;;;;;5073383;28;19915;-69
2023/02/28 03:18:51;;;;;;;;;;;;;;;;;;5073451;28;19908;-69
2023/02/28 03:21:17;;;;;;;;;;;;;;;;;;5073060;28;19916;-69
2023/02/28 03:23:43;;;;;;;;;;;;;;;;;;5072139;28;19915;-69
2023/02/28 03:26:09;;;;;;;;;;;;;;;;;;5073388;28;19913;-69
2023/02/28 03:28:35;;;;;;;;;;;;;;;;;;5071655;28;19954;-69
2023/02/28 03:31:01;;;;;;;;;;;;;;;;;;5072113;28;19908;-69
2023/02/28 03:33:27;;;;;;;;;;;;;;;;;;5073085;28;20353;-69
2023/02/28 03:35:53;;;;;;;;;;;;;;;;;;5073487;28;20288;-69
2023/02/28 03:38:19;;;;;;;;;;;;;;;;;;5073605;28;19913;-70
2023/02/28 03:40:45;;;;;;;;;;;;;;;;;;5072855;28;19959;-69
2023/02/28 03:43:11;;;;;;;;;;;;;;;;;;5073728;28;19909;-70
2023/02/28 03:45:36;;;;;;;;;;;;;;;;;;5073274;28;19908;-69
2023/02/28 03:48:02;;;;;;;;;;;;;;;;;;5072776;28;19916;-69
2023/02/28 03:50:28;;;;;;;;;;;;;;;;;;5071888;28;19913;-69
2023/02/28 03:52:54;;;;;;;;;;;;;;;;;;5073109;28;19908;-69
2023/02/28 03:55:20;;;;;;;;;;;;;;;;;;5072865;28;19913;-69
2023/02/28 03:57:46;;;;;;;;;;;;;;;;;;5073071;28;19962;-69
2023/02/28 04:00:13;;;;;;;;;;;;;;;;;;5071728;28;19913;-70
2023/02/28 04:02:39;;;;;;;;;;;;;;;;;;5072762;28;19931;-69
2023/02/28 04:05:05;;;;;;;;;;;;;;;;;;5073064;28;19999;-69
2023/02/28 04:07:31;;;;;;;;;;;;;;;;;;5072765;28;20015;-70
2023/02/28 04:09:57;;;;;;;;;;;;;;;;;;5071236;28;19912;-69
2023/02/28 04:12:23;;;;;;;;;;;;;;;;;;5072883;28;19916;-69
2023/02/28 04:14:49;;;;;;;;;;;;;;;;;;5073949;28;20011;-69
2023/02/28 04:17:14;;;;;;;;;;;;;;;;;;5074795;28;19908;-69
2023/02/28 04:19:40;;;;;;;;;;;;;;;;;;5076453;28;19962;-69
2023/02/28 04:22:06;;;;;;;;;;;;;;;;;;5075104;28;20015;-69
2023/02/28 04:24:32;;;;;;;;;;;;;;;;;;5074609;28;19908;-69
2023/02/28 04:26:58;;;;;;;;;;;;;;;;;;5076311;28;19920;-69
2023/02/28 04:29:24;;;;;;;;;;;;;;;;;;5076285;28;19916;-69
2023/02/28 04:31:51;;;;;;;;;;;;;;;;;;5075840;28;19909;-69
2023/02/28 04:34:18;;;;;;;;;;;;;;;;;;5076739;28;19908;-69
2023/02/28 04:36:45;;;;;;;;;;;;;;;;;;5074451;28;19909;-69
2023/02/28 04:39:11;;;;;;;;;;;;;;;;;;5076157;28;19963;-69
2023/02/28 04:41:37;;;;;;;;;;;;;;;;;;5074758;28;19914;-69
2023/02/28 04:44:03;;;;;;;;;;;;;;;;;;5075988;28;19947;-69
2023/02/28 04:46:30;;;;;;;;;;;;;;;;;;5075979;28;19917;-69
2023/02/28 04:48:56;;;;;;;;;;;;;;;;;;5075984;28;19908;-69
2023/02/28 04:51:22;;;;;;;;;;;;;;;;;;5075520;28;19915;-69
2023/02/28 04:53:48;;;;;;;;;;;;;;;;;;5075961;28;20010;-69
2023/02/28 04:56:14;;;;;;;;;;;;;;;;;;5074570;28;19908;-70
2023/02/28 04:58:39;;;;;;;;;;;;;;;;;;5074182;28;19909;-70
2023/02/28 05:01:12;;;;;;;;;;;;;;;;;;5075900;28;19958;-70
2023/02/28 05:03:38;;;;;;;;;;;;;;;;;;5075833;28;19917;-69
2023/02/28 05:06:04;;;;;;;;;;;;;;;;;;5075013;28;20062;-70
2023/02/28 05:08:30;;;;;;;;;;;;;;;;;;5075571;28;19913;-70
2023/02/28 05:10:56;;;;;;;;;;;;;;;;;;5075665;28;19916;-70
2023/02/28 05:13:22;;;;;;;;;;;;;;;;;;5073958;28;19912;-70
2023/02/28 05:15:48;;;;;;;;;;;;;;;;;;5075609;28;20386;-70
2023/02/28 05:18:14;;;;;;;;;;;;;;;;;;5074255;28;19991;-70
2023/02/28 05:20:40;;;;;;;;;;;;;;;;;;5075202;28;19909;-69
2023/02/28 05:23:06;;;;;;;;;;;;;;;;;;5075417;28;19908;-70
2023/02/28 05:25:32;;;;;;;;;;;;;;;;;;5075904;28;19955;-70
2023/02/28 05:27:58;;;;;;;;;;;;;;;;;;5074847;28;19967;-70
2023/02/28 05:30:24;;;;;;;;;;;;;;;;;;5075271;28;20020;-70
2023/02/28 05:32:50;;;;;;;;;;;;;;;;;;5073471;28;19908;-70
2023/02/28 05:35:16;;;;;;;;;;;;;;;;;;5074545;28;19909;-70
2023/02/28 05:37:42;;;;;;;;;;;;;;;;;;5072267;28;20029;-70
2023/02/28 05:40:11;;;;;;;;;;;;;;;;;;5074393;28;19916;-70
2023/02/28 05:42:37;;;;;;;;;;;;;;;;;;5074795;28;19908;-70
2023/02/28 05:45:03;;;;;;;;;;;;;;;;;;5073991;28;19909;-69
2023/02/28 05:47:29;;;;;;;;;;;;;;;;;;5073126;28;19920;-69
2023/02/28 05:49:55;;;;;;;;;;;;;;;;;;5074297;28;19908;-70
2023/02/28 05:52:21;;;;;;;;;;;;;;;;;;5073453;28;20342;-69
2023/02/28 05:54:46;;;;;;;;;;;;;;;;;;5071055;28;20289;-70
2023/02/28 05:57:12;;;;;;;;;;;;;;;;;;5072809;28;20272;-69
2023/02/28 05:59:39;;;;;;;;;;;;;;;;;;5073002;28;19958;-70
2023/02/28 06:02:05;;;;;;;;;;;;;;;;;;5073251;28;19955;-70
2023/02/28 06:04:31;;;;;;;;;;;;;;;;;;5073132;28;19908;-70
2023/02/28 06:06:57;;;;;;;;;;;;;;;;;;5073600;28;19920;-70
2023/02/28 06:09:23;;;;;;;;;;;;;;;;;;5074025;28;19947;-70
2023/02/28 06:11:49;;;;;;;;;;;;;;;;;;5072375;28;19916;-69
2023/02/28 06:14:15;;;;;;;;;;;;;;;;;;5070885;28;19909;-69
2023/02/28 06:16:41;;;;;;;;;;;;;;;;;;5071884;28;19950;-69
2023/02/28 06:19:08;;;;;;;;;;;;;;;;;;5070758;28;19939;-69
2023/02/28 06:21:34;;;;;;;;;;;;;;;;;;5071610;28;19909;-69
2023/02/28 06:24:00;;;;;;;;;;;;;;;;;;5067316;28;19973;-70
2023/02/28 06:26:25;;;;;;;;;;;;;;;;;;5066624;28;19928;-72
2023/02/28 06:28:51;;;;;;;;;;;;;;;;;;5072898;28;19919;-68
2023/02/28 06:31:17;;;;;;;;;;;;;;;;;;5072488;28;19912;-69
2023/02/28 06:33:47;;;;;;;;;;;;;;;;;;5066101;28;20408;-67
2023/02/28 06:36:14;;;;;;;;;;;;;;;;;;5072210;28;19919;-68
2023/02/28 06:38:40;;;;;;;;;;;;;;;;;;5071144;28;20376;-68
2023/02/28 06:41:06;;;;;;;;;;;;;;;;;;5069428;28;19926;-72
2023/02/28 06:43:32;;;;;;;;;;;;;;;;;;5070539;28;20381;-69
2023/02/28 06:45:58;;;;;;;;;;;;;;;;;;5070431;28;19965;-68
2023/02/28 06:48:24;;;;;;;;;;;;;;;;;;5069999;28;19913;-69
2023/02/28 06:50:50;;;;;;;;;;;;;;;;;;5069371;28;19912;-68
2023/02/28 06:53:16;;;;;;;;;;;;;;;;;;5068695;28;19908;-67
2023/02/28 06:55:42;;;;;;;;;;;;;;;;;;5068250;28;20003;-68
2023/02/28 06:58:14;;;;;;;;;;;;;;;;;;5068652;28;19921;-69
2023/02/28 07:00:40;;;;;;;;;;;;;;;;;;5068497;28;20505;-66
2023/02/28 07:03:06;;;;;;;;;;;;;;;;;;5063805;28;19989;-68
2023/02/28 07:05:32;;;;;;;;;;;;;;;;;;5068190;28;19913;-68
2023/02/28 07:07:58;;;;;;;;;;;;;;;;;;5067905;28;20511;-69
2023/02/28 07:10:24;;;;;;;;;;;;;;;;;;5070989;28;19916;-69
2023/02/28 07:12:51;;;;;;;;;;;;;;;;;;5071508;28;20449;-67
2023/02/28 07:15:17;;;;;;;;;;;;;;;;;;5066926;28;19913;-69
2023/02/28 07:17:43;;;;;;;;;;;;;;;;;;5071122;28;19916;-68
2023/02/28 07:20:09;;;;;;;;;;;;;;;;;;5065179;28;19999;-71
2023/02/28 07:22:35;;;;;;;;;;;;;;;;;;5065669;28;19921;-70
2023/02/28 07:25:01;;;;;;;;;;;;;;;;;;5061358;28;19935;-69
2023/02/28 07:27:27;;;;;;;;;;;;;;;;;;5062235;28;20027;-69
2023/02/28 07:29:53;;;;;;;;;;;;;;;;;;5068545;28;20381;-68
2023/02/28 07:32:19;;;;;;;;;;;;;;;;;;5068461;28;19925;-68
2023/02/28 07:34:45;;;;;;;;;;;;;;;;;;5068194;28;19914;-68
2023/02/28 07:37:10;;;;;;;;;;;;;;;;;;5069011;28;19920;-69
2023/02/28 07:39:36;;;;;;;;;;;;;;;;;;5065825;28;19913;-68
2023/02/28 07:42:03;;;;;;;;;;;;;;;;;;5069727;28;19916;-69
2023/02/28 07:44:29;;;;;;;;;;;;;;;;;;5068180;28;19962;-69
2023/02/28 07:46:55;;;;;;;;;;;;;;;;;;5067736;28;19971;-69
2023/02/28 07:49:21;;;;;;;;;;;;;;;;;;5070292;28;19913;-71
2023/02/28 07:51:48;;;;;;;;;;;;;;;;;;5072061;28;19916;-71
2023/02/28 07:54:14;;;;;;;;;;;;;;;;;;5072130;28;19985;-71
2023/02/28 07:56:41;;;;;;;;;;;;;;;;;;5075368;28;20054;-71
2023/02/28 07:59:07;;;;;;;;;;;;;;;;;;5071915;28;19912;-71
2023/02/28 08:01:33;;;;;;;;;;;;;;;;;;5071991;28;19919;-71
2023/02/28 08:04:00;;;;;;;;;;;;;;;;;;5071548;28;19921;-69
2023/02/28 08:06:26;;;;;;;;;;;;;;;;;;5069477;28;19932;-69
2023/02/28 08:08:52;;;;;;;;;;;;;;;;;;5068616;28;19994;-68
2023/02/28 08:11:20;;;;;;;;;;;;;;;;;;5071020;28;20015;-69
2023/02/28 08:13:46;;;;;;;;;;;;;;;;;;5071863;28;19980;-68
2023/02/28 08:16:15;;;;;;;;;;;;;;;;;;5070576;28;20295;-69
2023/02/28 08:18:41;;;;;;;;;;;;;;;;;;5068004;28;19912;-69
2023/02/28 08:21:07;;;;;;;;;;;;;;;;;;5066540;28;19912;-68
2023/02/28 08:23:33;;;;;;;;;;;;;;;;;;5065665;28;19923;-68
2023/02/28 08:25:59;;;;;;;;;;;;;;;;;;5063015;28;20412;-70
2023/02/28 08:28:25;;;;;;;;;;;;;;;;;;5067879;28;20409;-69
2023/02/28 08:30:51;;;;;;;;;;;;;;;;;;5047570;28;20050;-69
2023/02/28 08:33:17;;;;;;;;;;;;;;;;;;5063569;28;20384;-68
2023/02/28 08:35:43;;;;;;;;;;;;;;;;;;5066019;28;20285;-68
2023/02/28 08:38:09;;;;;;;;;;;;;;;;;;5070768;28;19923;-69
2023/02/28 08:40:35;;;;;;;;;;;;;;;;;;5067954;28;19916;-69
2023/02/28 08:43:01;;;;;;;;;;;;;;;;;;5069167;28;20614;-67
2023/02/28 08:45:27;;;;;;;;;;;;;;;;;;5070922;28;20025;-69
2023/02/28 08:47:53;;;;;;;;;;;;;;;;;;5071512;28;20458;-68
2023/02/28 08:50:19;;;;;;;;;;;;;;;;;;5064890;28;19939;-69
2023/02/28 08:52:45;;;;;;;;;;;;;;;;;;5071290;28;19913;-69
2023/02/28 08:55:11;;;;;;;;;;;;;;;;;;5069441;28;19916;-69
2023/02/28 08:57:37;;;;;;;;;;;;;;;;;;5070231;28;19916;-69
2023/02/28 09:00:04;;;;;;;;;;;;;;;;;;5071794;28;19985;-68
2023/02/28 09:02:30;;;;;;;;;;;;;;;;;;5069806;28;20285;-69
2023/02/28 09:04:56;;;;;;;;;;;;;;;;;;5071974;28;19912;-69
2023/02/28 09:07:21;;;;;;;;;;;;;;;;;;5066769;28;20035;-70
2023/02/28 09:09:53;;;;;;;;;;;;;;;;;;5070890;28;20020;-68
2023/02/28 09:12:20;;;;;;;;;;;;;;;;;;5070466;28;19928;-69
2023/02/28 09:14:46;;;;;;;;;;;;;;;;;;5063286;28;19955;-69
2023/02/28 09:17:11;;;;;;;;;;;;;;;;;;5069977;28;19955;-69
2023/02/28 09:19:37;;;;;;;;;;;;;;;;;;5067178;28;19978;-69
2023/02/28 09:22:05;;;;;;;;;;;;;;;;;;5066675;28;19909;-69
2023/02/28 09:24:31;;;;;;;;;;;;;;;;;;5069101;28;20320;-69
2023/02/28 09:26:57;;;;;;;;;;;;;;;;;;5067202;28;19916;-70
2023/02/28 09:29:23;;;;;;;;;;;;;;;;;;5068402;28;19923;-68
2023/02/28 09:31:49;;;;;;;;;;;;;;;;;;5066061;28;19948;-68
2023/02/28 09:34:17;;;;;;;;;;;;;;;;;;5065614;28;19955;-68
2023/02/28 09:36:43;;;;;;;;;;;;;;;;;;5067953;28;19912;-69
2023/02/28 09:39:09;;;;;;;;;;;;;;;;;;5066357;28;19916;-70
2023/02/28 09:41:36;;;;;;;;;;;;;;;;;;5068204;28;19959;-71
2023/02/28 09:44:08;;;;;;;;;;;;;;;;;;5068193;28;19923;-69
2023/02/28 09:46:33;;;;;;;;;;;;;;;;;;5069425;28;19935;-69
2023/02/28 09:49:00;;;;;;;;;;;;;;;;;;5068732;28;19908;-67
2023/02/28 09:51:26;;;;;;;;;;;;;;;;;;5068475;28;20372;-68
2023/02/28 09:53:51;;;;;;;;;;;;;;;;;;5065446;28;19912;-69
2023/02/28 09:56:17;;;;;;;;;;;;;;;;;;5050497;28;19917;-67
2023/02/28 09:58:43;;;;;;;;;;;;;;;;;;5060296;28;20602;-67
2023/02/28 10:01:09;;;;;;;;;;;;;;;;;;5058637;28;20331;-67
2023/02/28 10:03:35;;;;;;;;;;;;;;;;;;5055945;28;19934;-68
2023/02/28 10:06:03;;;;;;;;;;;;;;;;;;5059907;28;19978;-67
2023/02/28 10:08:29;;;;;;;;;;;;;;;;;;5064613;28;20434;-67
2023/02/28 10:10:55;;;;;;;;;;;;;;;;;;5055386;28;19990;-69
2023/02/28 10:13:21;;;;;;;;;;;;;;;;;;5056570;28;19916;-67
2023/02/28 10:15:47;;;;;;;;;;;;;;;;;;5059147;28;19916;-66
2023/02/28 10:18:13;;;;;;;;;;;;;;;;;;5064461;28;20018;-67
2023/02/28 10:20:39;;;;;;;;;;;;;;;;;;5065371;28;20344;-67
2023/02/28 10:23:08;;;;;;;;;;;;;;;;;;5065208;28;19918;-67
2023/02/28 10:25:34;;;;;;;;;;;;;;;;;;5066230;28;19920;-67
2023/02/28 10:28:00;;;;;;;;;;;;;;;;;;5053589;28;19920;-67
2023/02/28 10:30:26;;;;;;;;;;;;;;;;;;5061901;28;19917;-67
2023/02/28 10:32:53;;;;;;;;;;;;;;;;;;5063940;28;20331;-68
2023/02/28 10:35:19;;;;;;;;;;;;;;;;;;5048193;28;19962;-67
2023/02/28 10:37:45;;;;;;;;;;;;;;;;;;5066736;28;19913;-66
2023/02/28 10:40:11;;;;;;;;;;;;;;;;;;5052124;28;19920;-68
2023/02/28 10:42:38;;;;;;;;;;;;;;;;;;5067861;28;19908;-67
2023/02/28 10:45:04;;;;;;;;;;;;;;;;;;5061215;28;19939;-67
2023/02/28 10:47:30;;;;;;;;;;;;;;;;;;5067249;28;20432;-67
2023/02/28 10:49:56;;;;;;;;;;;;;;;;;;5067934;28;20657;-68
2023/02/28 10:52:22;;;;;;;;;;;;;;;;;;5069902;28;20534;-67
2023/02/28 10:54:48;;;;;;;;;;;;;;;;;;5070834;28;20294;-68
2023/02/28 10:57:14;;;;;;;;;;;;;;;;;;5069984;28;20007;-66
2023/02/28 10:59:40;;;;;;;;;;;;;;;;;;5069094;28;19928;-67
2023/02/28 11:02:06;;;;;;;;;;;;;;;;;;5069379;28;19919;-68
2023/02/28 11:04:35;;;;;;;;;;;;;;;;;;5069507;28;19912;-68
2023/02/28 11:07:01;;;;;;;;;;;;;;;;;;5065923;28;19928;-67
2023/02/28 11:09:29;;;;;;;;;;;;;;;;;;5068059;28;19962;-68
2023/02/28 11:11:55;;;;;;;;;;;;;;;;;;5068564;28;19924;-68
2023/02/28 11:14:21;;;;;;;;;;;;;;;;;;5069980;28;20360;-69
2023/02/28 11:16:47;;;;;;;;;;;;;;;;;;5065004;28;19916;-67
2023/02/28 11:19:13;;;;;;;;;;;;;;;;;;5066522;28;19912;-68
2023/02/28 11:21:40;;;;;;;;;;;;;;;;;;5067742;28;20439;-67
2023/02/28 11:24:06;;;;;;;;;;;;;;;;;;5072325;28;19988;-66
2023/02/28 11:26:32;;;;;;;;;;;;;;;;;;5071150;28;20267;-67
2023/02/28 11:28:58;;;;;;;;;;;;;;;;;;5071097;28;20047;-67
2023/02/28 11:31:29;;;;;;;;;;;;;;;;;;5071818;28;19974;-67
2023/02/28 11:33:56;;;;;;;;;;;;;;;;;;5069328;28;19960;-66
2023/02/28 11:36:24;;;;;;;;;;;;;;;;;;5070202;28;19916;-67
2023/02/28 11:38:50;;;;;;;;;;;;;;;;;;5068440;28;19948;-67
2023/02/28 11:41:16;;;;;;;;;;;;;;;;;;5071197;28;20029;-69
2023/02/28 11:43:42;;;;;;;;;;;;;;;;;;5072484;28;19938;-66
2023/02/28 11:46:08;;;;;;;;;;;;;;;;;;5070699;28;19945;-67
2023/02/28 11:50:18;;;;;;;;;;;;;;;;;;5105163;27;20418;-68
2023/02/28 11:52:44;;;;;;;;;;;;;;;;;;5104739;28;19916;-67
2023/02/28 11:55:10;;;;;;;;;;;;;;;;;;5108143;28;19923;-67
2023/02/28 11:57:36;;;;;;;;;;;;;;;;;;5107776;28;19999;-65
2023/02/28 12:01:15;;;;;;;;;;;;;;;;;;5121329;27;19919;-69
2023/02/28 12:03:41;;;;;;;;;;;;;;;;;;5120774;28;20015;-68
2023/02/28 12:06:57;;;;;;;;;;;;;;;;;;5087554;27;19920;-67
2023/02/28 12:11:57;;;;;;;;;;;;;;;;;;5085934;27;19924;-66
2023/02/28 12:15:55;;;;;;;;;;;;;;;;;;5085969;27;19920;-64
2023/02/28 12:19:21;;;;;;;;;;;;;;;;;;5067630;27;19920;-68
2023/02/28 12:21:47;;;;;;;;;;;;;;;;;;5065853;28;19928;-66
2023/02/28 12:24:13;;;;;;;;;;;;;;;;;;5066507;28;20349;-67
2023/02/28 12:29:02;;;;;;;;;;;;;;;;;;5103925;27;19920;-70
2023/02/28 12:31:28;;;;;;;;;;;;;;;;;;5106361;28;19916;-71
2023/02/28 12:33:54;;;;;;;;;;;;;;;;;;5104621;28;20252;-67
2023/02/28 12:36:21;;;;;;;;;;;;;;;;;;5104634;28;19995;-71
2023/02/28 12:40:58;;;;;;;;;;;;;;;;;;5108849;27;19920;-71
2023/02/28 12:43:24;;;;;;;;;;;;;;;;;;5108247;28;20002;-71
2023/02/28 12:45:50;;;;;;;;;;;;;;;;;;5089056;28;19912;-71
2023/02/28 12:50:37;;;;;;;;;;;;;;;;;;5108096;27;19920;-71
2023/02/28 12:53:26;;;;;;;;;;;;;;;;;;5110321;27;20243;-70
2023/02/28 12:55:52;;;;;;;;;;;;;;;;;;5103512;28;19951;-70
2023/02/28 12:59:36;;;;;;;;;;;;;;;;;;5088232;27;19917;-68
2023/02/28 13:02:02;;;;;;;;;;;;;;;;;;5086822;28;19917;-67
2023/02/28 13:04:28;;;;;;;;;;;;;;;;;;5088032;28;20293;-70
2023/02/28 13:07:31;;;;;;;;;;;;;;;;;;5136545;27;19916;-69
2023/02/28 13:09:57;;;;;;;;;;;;;;;;;;5128009;28;19959;-70
2023/02/28 13:12:23;;;;;;;;;;;;;;;;;;5125599;28;20346;-69
2023/02/28 13:16:34;;;;;;;;;;;;;;;;;;5105773;27;19920;-69
2023/02/28 13:19:00;;;;;;;;;;;;;;;;;;5104243;28;20419;-70
2023/02/28 13:22:34;;;;;;;;;;;;;;;;;;5106888;27;19920;-68
2023/02/28 13:25:00;;;;;;;;;;;;;;;;;;5089226;28;19912;-68
2023/02/28 13:27:26;;;;;;;;;;;;;;;;;;5089281;28;19916;-69
2023/02/28 13:30:12;;;;;;;;;;;;;;;;;;5070054;27;20389;-69
2023/02/28 13:32:38;;;;;;;;;;;;;;;;;;5054518;28;19919;-69
2023/02/28 13:37:29;;;;;;;;;;;;;;;;;;5109892;27;20382;-69
2023/02/28 13:39:55;;;;;;;;;;;;;;;;;;5106148;28;19958;-69
2023/02/28 13:44:37;;;;;;;;;;;;;;;;;;5101102;27;19930;-69
2023/02/28 13:47:03;;;;;;;;;;;;;;;;;;5087464;28;19970;-69
2023/02/28 13:49:29;;;;;;;;;;;;;;;;;;5087219;28;19916;-69
2023/02/28 13:51:56;;;;;;;;;;;;;;;;;;5089087;28;19919;-69
2023/02/28 13:54:58;;;;;;;;;;;;;;;;;;5103711;27;20396;-70
2023/02/28 13:57:24;;;;;;;;;;;;;;;;;;5109932;28;19916;-68
2023/02/28 13:59:50;;;;;;;;;;;;;;;;;;5108550;28;20291;-68
2023/02/28 14:03:14;;;;;;;;;;;;;;;;;;5109364;27;19922;-70
2023/02/28 14:05:40;;;;;;;;;;;;;;;;;;5109608;28;19912;-70
2023/02/28 14:10:16;;;;;;;;;;;;;;;;;;5089065;27;19916;-70
2023/02/28 14:12:42;;;;;;;;;;;;;;;;;;5089426;28;20003;-70
2023/02/28 14:15:08;;;;;;;;;;;;;;;;;;5087859;28;19915;-70
2023/02/28 14:17:34;;;;;;;;;;;;;;;;;;5090403;28;19909;-70
2023/02/28 14:20:00;;;;;;;;;;;;;;;;;;5088690;28;19908;-70
2023/02/28 14:22:26;;;;;;;;;;;;;;;;;;5089868;28;19920;-70
2023/02/28 14:24:52;;;;;;;;;;;;;;;;;;5089295;28;19908;-70
2023/02/28 14:27:18;;;;;;;;;;;;;;;;;;5091009;28;19952;-70
2023/02/28 14:29:44;;;;;;;;;;;;;;;;;;5090803;28;19974;-70
2023/02/28 14:32:10;;;;;;;;;;;;;;;;;;5085337;28;20373;-70
2023/02/28 14:34:36;;;;;;;;;;;;;;;;;;5089679;28;19916;-70
2023/02/28 14:37:01;;;;;;;;;;;;;;;;;;5090628;28;19915;-70
2023/02/28 14:39:30;;;;;;;;;;;;;;;;;;5089035;28;19966;-70
2023/02/28 14:41:58;;;;;;;;;;;;;;;;;;5089693;28;20292;-70
2023/02/28 14:44:25;;;;;;;;;;;;;;;;;;5088438;28;20285;-70
2023/02/28 14:46:51;;;;;;;;;;;;;;;;;;5090728;28;20279;-71
2023/02/28 14:49:17;;;;;;;;;;;;;;;;;;5090546;28;20015;-71
2023/02/28 14:51:43;;;;;;;;;;;;;;;;;;5090870;28;19995;-71
2023/02/28 14:54:09;;;;;;;;;;;;;;;;;;5090441;28;19953;-70
2023/02/28 14:56:34;;;;;;;;;;;;;;;;;;5090038;28;19908;-70
2023/02/28 14:59:00;;;;;;;;;;;;;;;;;;5090253;28;19909;-71
2023/02/28 15:01:26;;;;;;;;;;;;;;;;;;5090351;28;19958;-71
2023/02/28 15:03:52;;;;;;;;;;;;;;;;;;5089972;28;19908;-70
2023/02/28 15:06:20;;;;;;;;;;;;;;;;;;5090319;28;19909;-70
2023/02/28 15:08:46;;;;;;;;;;;;;;;;;;5098164;28;19924;-70
2023/02/28 15:11:12;;;;;;;;;;;;;;;;;;5110030;28;19931;-70
2023/02/28 15:13:38;;;;;;;;;;;;;;;;;;5110432;28;20002;-70
2023/02/28 15:16:04;;;;;;;;;;;;;;;;;;5110564;28;19915;-70
2023/02/28 15:18:30;;;;;;;;;;;;;;;;;;5109918;28;19969;-70
2023/02/28 15:20:56;;;;;;;;;;;;;;;;;;5100473;28;19953;-70
2023/02/28 15:23:22;;;;;;;;;;;;;;;;;;5096634;28;20007;-70
2023/02/28 15:25:48;;;;;;;;;;;;;;;;;;5096278;28;19912;-70
2023/02/28 15:28:14;;;;;;;;;;;;;;;;;;5096599;28;19912;-70
2023/02/28 15:30:39;;;;;;;;;;;;;;;;;;5096310;28;19919;-70
2023/02/28 15:33:06;;;;;;;;;;;;;;;;;;5096533;28;19939;-70
2023/02/28 15:35:32;;;;;;;;;;;;;;;;;;5096432;28;19953;-70
2023/02/28 15:37:57;;;;;;;;;;;;;;;;;;5095980;28;20026;-70
2023/02/28 15:40:23;;;;;;;;;;;;;;;;;;5096317;28;19931;-70
2023/02/28 15:42:49;;;;;;;;;;;;;;;;;;5096279;28;19908;-70
2023/02/28 15:45:15;;;;;;;;;;;;;;;;;;5095888;28;19912;-70
2023/02/28 15:47:41;;;;;;;;;;;;;;;;;;5078110;28;19908;-70
2023/02/28 15:50:07;;;;;;;;;;;;;;;;;;5096073;28;19923;-70
2023/02/28 15:52:33;;;;;;;;;;;;;;;;;;5095530;28;20041;-70
2023/02/28 15:54:59;;;;;;;;;;;;;;;;;;5077722;28;19947;-70
2023/02/28 15:57:26;;;;;;;;;;;;;;;;;;5095975;28;19909;-70
2023/02/28 15:59:52;;;;;;;;;;;;;;;;;;5077281;28;20395;-70
2023/02/28 16:02:18;;;;;;;;;;;;;;;;;;5077673;28;19908;-70
2023/02/28 16:04:44;;;;;;;;;;;;;;;;;;5096057;28;19934;-70
2023/02/28 16:07:10;;;;;;;;;;;;;;;;;;5095446;28;20337;-70
2023/02/28 16:09:37;;;;;;;;;;;;;;;;;;5077360;28;20381;-70
2023/02/28 16:12:03;;;;;;;;;;;;;;;;;;5095771;28;20007;-70
2023/02/28 16:14:30;;;;;;;;;;;;;;;;;;5077080;28;19908;-70
2023/02/28 16:16:56;;;;;;;;;;;;;;;;;;5077487;28;19921;-70
2023/02/28 16:19:22;;;;;;;;;;;;;;;;;;5095540;28;20360;-70
2023/02/28 16:21:48;;;;;;;;;;;;;;;;;;5095204;28;20328;-70
2023/02/28 16:24:14;;;;;;;;;;;;;;;;;;5095683;28;19958;-70
2023/02/28 16:26:40;;;;;;;;;;;;;;;;;;5095430;28;19908;-70
2023/02/28 16:29:06;;;;;;;;;;;;;;;;;;5076772;28;19927;-70
2023/02/28 16:31:32;;;;;;;;;;;;;;;;;;5094572;28;19909;-70
2023/02/28 16:33:58;;;;;;;;;;;;;;;;;;5094846;28;20421;-70
2023/02/28 16:36:27;;;;;;;;;;;;;;;;;;5095324;28;20360;-70
2023/02/28 16:38:53;;;;;;;;;;;;;;;;;;5077046;28;20284;-70
2023/02/28 16:41:19;;;;;;;;;;;;;;;;;;5094896;28;19919;-70
2023/02/28 16:43:45;;;;;;;;;;;;;;;;;;5095142;28;19907;-70
2023/02/28 16:46:11;;;;;;;;;;;;;;;;;;5095289;28;19909;-70
2023/02/28 16:48:37;;;;;;;;;;;;;;;;;;5094503;28;19939;-70
2023/02/28 16:51:04;;;;;;;;;;;;;;;;;;5095052;28;20372;-70
2023/02/28 16:53:30;;;;;;;;;;;;;;;;;;5094862;28;19915;-69
2023/02/28 16:55:56;;;;;;;;;;;;;;;;;;5094478;28;20288;-70
2023/02/28 16:58:25;;;;;;;;;;;;;;;;;;5094886;28;20289;-70
2023/02/28 17:00:52;;;;;;;;;;;;;;;;;;5094759;28;19934;-70
2023/02/28 17:03:18;;;;;;;;;;;;;;;;;;5094357;28;19916;-70
2023/02/28 17:05:44;;;;;;;;;;;;;;;;;;5094635;28;19908;-70
2023/02/28 17:08:09;;;;;;;;;;;;;;;;;;5094342;28;19951;-70